Time;durP1;ratioP1;P1;durP2;ratioP2;P2;SDS_P1;SDS_P2;PMS_P1;PMS_P2;Temp;Humidity;BMP_temperature;BMP_pressure;BME280_temperature;BME280_humidity;BME280_pressure;Samples;Min_cycle;Max_cycle;Signal;HPM_P1;HPM_P2
2022/08/28 00:01:49;;;;;;;8.97;4.00;;;22.20;91.50;;;;;;5011551;28;20670;-66
2022/08/28 00:04:14;;;;;;;4.30;3.80;;;22.20;91.30;;;;;;4984926;28;20254;-66
2022/08/28 00:06:40;;;;;;;4.57;4.20;;;22.20;91.80;;;;;;4999903;28;20241;-65
2022/08/28 00:09:06;;;;;;;4.00;3.70;;;22.20;92.60;;;;;;5011627;28;20191;-68
2022/08/28 00:11:36;;;;;;;4.00;3.70;;;22.20;91.70;;;;;;5011276;28;20904;-66
2022/08/28 00:14:07;;;;;;;5.70;4.07;;;22.10;91.40;;;;;;5015784;28;20512;-66
2022/08/28 00:16:34;;;;;;;5.87;3.97;;;22.10;92.60;;;;;;5014118;28;20512;-66
2022/08/28 00:19:00;;;;;;;5.73;3.90;;;22.10;92.30;;;;;;5016250;28;20402;-65
2022/08/28 00:21:28;;;;;;;4.80;3.80;;;22.10;92.40;;;;;;5015297;28;20432;-66
2022/08/28 00:23:54;;;;;;;4.33;3.93;;;22.10;92.20;;;;;;5015947;28;20775;-66
2022/08/28 00:29:05;;;;;;;4.10;3.80;;;22.10;91.80;;;;;;5008791;28;20789;-65
2022/08/28 00:31:33;;;;;;;4.00;3.70;;;22.10;92.30;;;;;;5011872;28;21389;-69
2022/08/28 00:34:01;;;;;;;4.83;3.90;;;22.10;92.10;;;;;;5014336;28;20417;-66
2022/08/28 00:36:28;;;;;;;5.67;4.20;;;22.10;91.70;;;;;;5011339;28;20422;-66
2022/08/28 00:38:55;;;;;;;4.67;4.27;;;22.10;91.50;;;;;;5014688;28;20409;-66
2022/08/28 00:41:21;;;;;;;5.07;4.30;;;22.00;91.70;;;;;;5010901;28;20434;-66
2022/08/28 00:43:48;;;;;;;5.03;4.00;;;22.00;92.20;;;;;;4963374;28;20425;-66
2022/08/28 00:46:20;;;;;;;6.97;4.43;;;21.90;92.00;;;;;;5012991;28;20823;-67
2022/08/28 00:48:47;;;;;;;7.20;4.27;;;21.90;92.00;;;;;;5014554;28;20414;-66
2022/08/28 00:54:00;;;;;;;5.10;4.67;;;21.90;91.90;;;;;;5013077;28;20424;-65
2022/08/28 00:56:28;;;;;;;4.97;4.50;;;21.90;92.60;;;;;;5006933;28;20437;-66
2022/08/28 00:58:56;;;;;;;4.30;3.93;;;21.90;92.80;;;;;;5014401;28;20418;-65
2022/08/28 01:01:22;;;;;;;4.90;4.00;;;21.80;92.40;;;;;;5012361;28;20789;-65
2022/08/28 01:03:48;;;;;;;5.33;4.87;;;21.80;92.80;;;;;;5013249;28;20472;-66
2022/08/28 01:06:15;;;;;;;5.50;4.30;;;21.80;92.20;;;;;;5011082;28;20465;-66
2022/08/28 01:08:44;;;;;;;7.47;4.93;;;21.70;92.70;;;;;;5011802;28;20187;-66
2022/08/28 01:11:12;;;;;;;7.43;5.00;;;21.70;92.30;;;;;;5006902;28;20841;-69
2022/08/28 01:13:40;;;;;;;5.80;4.40;;;21.70;92.60;;;;;;5010186;28;20918;-65
2022/08/28 01:16:07;;;;;;;5.60;4.97;;;21.60;92.50;;;;;;5012463;28;20914;-67
2022/08/28 01:18:33;;;;;;;7.43;4.50;;;21.60;92.30;;;;;;4959672;28;20724;-65
2022/08/28 01:21:28;;;;;;;6.23;4.50;;;21.60;91.90;;;;;;5014879;28;20418;-65
2022/08/28 01:24:13;;;;;;;6.83;4.80;;;21.60;92.40;;;;;;5013606;28;20505;-66
2022/08/28 01:26:39;;;;;;;7.43;4.67;;;21.50;92.10;;;;;;5011983;28;20458;-65
2022/08/28 01:29:07;;;;;;;8.03;4.40;;;21.50;92.20;;;;;;5014509;28;20422;-66
2022/08/28 01:31:34;;;;;;;5.23;4.63;;;21.50;92.00;;;;;;5013935;28;20468;-66
2022/08/28 01:34:00;;;;;;;5.30;4.83;;;21.50;92.30;;;;;;5014071;28;20429;-65
2022/08/28 01:36:28;;;;;;;9.90;4.87;;;21.50;92.20;;;;;;5010820;28;20450;-65
2022/08/28 01:38:59;;;;;;;5.93;5.30;;;21.40;92.70;;;;;;5014630;28;20525;-65
2022/08/28 01:41:25;;;;;;;8.60;5.80;;;21.40;92.90;;;;;;5013673;28;20395;-65
2022/08/28 01:43:52;;;;;;;4.93;4.50;;;21.30;92.50;;;;;;5014934;28;20426;-65
2022/08/28 01:46:18;;;;;;;5.47;5.00;;;21.30;92.90;;;;;;5011630;28;20209;-66
2022/08/28 01:48:44;;;;;;;5.30;4.67;;;21.30;92.80;;;;;;5015324;28;20413;-66
2022/08/28 01:51:11;;;;;;;6.30;5.17;;;21.30;92.60;;;;;;5012872;28;20445;-65
2022/08/28 01:53:38;;;;;;;7.43;4.70;;;21.30;92.40;;;;;;5013690;28;20410;-66
2022/08/28 01:56:11;;;;;;;7.30;4.70;;;21.20;92.80;;;;;;5014235;28;20433;-65
2022/08/28 01:58:38;;;;;;;6.67;5.67;;;21.20;93.10;;;;;;5013892;28;20463;-66
2022/08/28 02:01:09;;;;;;;6.07;4.90;;;21.10;92.90;;;;;;4992553;28;20541;-65
2022/08/28 02:03:35;;;;;;;6.60;4.50;;;21.00;93.40;;;;;;5013154;28;20583;-65
2022/08/28 02:06:00;;;;;;;7.43;4.93;;;21.00;93.30;;;;;;5013827;28;20916;-65
2022/08/28 02:08:26;;;;;;;7.90;5.50;;;20.90;94.40;;;;;;5012897;28;20175;-66
2022/08/28 02:10:52;;;;;;;5.20;4.70;;;20.90;93.70;;;;;;5014481;28;20183;-65
2022/08/28 02:13:17;;;;;;;5.60;4.87;;;21.00;93.40;;;;;;4946404;28;20187;-66
2022/08/28 02:15:44;;;;;;;7.00;5.70;;;21.00;94.00;;;;;;5013025;28;20751;-66
2022/08/28 02:18:10;;;;;;;5.40;4.77;;;21.00;93.40;;;;;;5013797;28;20183;-66
2022/08/28 02:20:37;;;;;;;5.63;5.10;;;21.00;93.80;;;;;;5012602;28;20410;-66
2022/08/28 02:23:03;;;;;;;7.20;5.00;;;21.00;94.10;;;;;;5013997;28;20429;-65
2022/08/28 02:25:29;;;;;;;8.10;5.00;;;21.00;93.70;;;;;;5012770;28;20553;-66
2022/08/28 02:27:55;;;;;;;6.10;5.57;;;21.00;94.20;;;;;;5013577;28;20852;-65
2022/08/28 02:30:22;;;;;;;6.53;5.57;;;21.00;93.30;;;;;;5012994;28;20697;-66
2022/08/28 02:32:49;;;;;;;6.40;5.03;;;21.00;93.20;;;;;;4962854;28;20430;-65
2022/08/28 02:35:17;;;;;;;7.30;5.47;;;21.00;93.30;;;;;;5012697;28;20433;-69
2022/08/28 02:37:44;;;;;;;9.23;5.70;;;20.90;93.40;;;;;;5013257;28;20513;-66
2022/08/28 02:40:13;;;;;;;8.33;5.60;;;20.90;93.60;;;;;;5013366;28;20410;-66
2022/08/28 02:42:40;;;;;;;7.90;5.50;;;20.90;93.20;;;;;;5012682;28;20461;-65
2022/08/28 02:45:10;;;;;;;7.80;5.63;;;20.90;93.40;;;;;;5008755;28;20479;-66
2022/08/28 02:47:37;;;;;;;6.00;5.43;;;20.90;94.10;;;;;;4997815;28;20439;-66
2022/08/28 02:50:03;;;;;;;6.00;5.03;;;20.80;93.70;;;;;;4993558;28;20415;-65
2022/08/28 02:52:29;;;;;;;6.80;5.70;;;20.80;93.20;;;;;;4992757;28;20426;-66
2022/08/28 02:54:55;;;;;;;6.13;5.53;;;20.80;93.40;;;;;;5003995;28;20512;-66
2022/08/28 02:57:20;;;;;;;7.87;6.00;;;20.80;93.90;;;;;;5012322;28;20179;-66
2022/08/28 02:59:46;;;;;;;6.90;5.37;;;20.80;93.70;;;;;;5013302;28;20183;-66
2022/08/28 03:02:12;;;;;;;6.57;5.60;;;20.70;94.00;;;;;;4990845;28;20183;-67
2022/08/28 03:04:38;;;;;;;7.60;5.40;;;20.70;93.90;;;;;;5012073;28;20421;-66
2022/08/28 03:07:08;;;;;;;7.80;5.20;;;20.70;94.30;;;;;;5010997;28;20669;-66
2022/08/28 03:09:34;;;;;;;6.00;5.40;;;20.60;94.10;;;;;;4992272;28;20647;-66
2022/08/28 03:11:59;;;;;;;8.20;5.60;;;20.60;93.80;;;;;;5004637;28;20465;-66
2022/08/28 03:14:25;;;;;;;12.27;6.07;;;20.60;94.90;;;;;;4987281;28;20462;-66
2022/08/28 03:16:51;;;;;;;8.20;6.03;;;20.60;94.80;;;;;;5003725;28;20194;-66
2022/08/28 03:19:17;;;;;;;8.23;6.03;;;20.60;94.30;;;;;;5011477;28;20261;-70
2022/08/28 03:21:44;;;;;;;7.60;5.50;;;20.60;93.70;;;;;;5012342;28;20553;-65
2022/08/28 03:24:10;;;;;;;8.10;5.77;;;20.60;94.10;;;;;;4993972;28;20640;-65
2022/08/28 03:26:35;;;;;;;6.30;5.50;;;20.60;94.10;;;;;;5011649;28;20565;-66
2022/08/28 03:29:01;;;;;;;6.43;5.33;;;20.60;94.60;;;;;;5011886;28;20187;-65
2022/08/28 03:31:28;;;;;;;7.37;5.70;;;20.60;94.40;;;;;;5011973;28;20528;-66
2022/08/28 03:33:55;;;;;;;6.27;5.57;;;20.60;94.20;;;;;;5011654;28;20920;-66
2022/08/28 03:36:23;;;;;;;7.83;5.47;;;20.50;94.10;;;;;;5010993;28;20458;-70
2022/08/28 03:38:54;;;;;;;7.40;5.53;;;20.50;94.90;;;;;;4994961;28;20438;-66
2022/08/28 03:41:22;;;;;;;6.13;5.53;;;20.50;94.90;;;;;;5011036;28;21000;-69
2022/08/28 03:43:48;;;;;;;7.23;6.37;;;20.50;94.90;;;;;;4992862;28;20581;-66
2022/08/28 03:46:19;;;;;;;6.67;5.87;;;20.50;95.30;;;;;;5006969;28;20999;-65
2022/08/28 03:48:45;;;;;;;5.67;4.90;;;20.40;95.20;;;;;;5011427;28;20337;-66
2022/08/28 03:51:14;;;;;;;8.80;5.53;;;20.40;95.40;;;;;;5011714;28;20430;-66
2022/08/28 03:53:41;;;;;;;6.23;5.50;;;20.50;95.40;;;;;;5011682;28;20968;-68
2022/08/28 03:56:14;;;;;;;6.20;5.60;;;20.50;94.90;;;;;;5011930;28;20468;-66
2022/08/28 03:58:41;;;;;;;6.30;5.70;;;20.50;95.40;;;;;;5011692;28;20394;-66
2022/08/28 04:01:07;;;;;;;9.20;5.60;;;20.40;95.00;;;;;;5012528;28;20422;-65
2022/08/28 04:03:33;;;;;;;7.37;5.30;;;20.40;95.10;;;;;;5008491;28;20485;-66
2022/08/28 04:05:59;;;;;;;10.33;5.87;;;20.40;95.20;;;;;;5012174;28;20473;-66
2022/08/28 04:08:25;;;;;;;6.90;6.20;;;20.40;95.40;;;;;;5011404;28;20648;-66
2022/08/28 04:10:51;;;;;;;6.83;5.50;;;20.30;95.40;;;;;;5011525;28;20545;-66
2022/08/28 04:13:37;;;;;;;7.13;6.17;;;20.30;95.30;;;;;;4969460;28;20251;-66
2022/08/28 04:16:09;;;;;;;11.70;6.30;;;20.30;95.40;;;;;;4958425;28;20440;-65
2022/08/28 04:18:36;;;;;;;7.50;5.50;;;20.20;95.40;;;;;;4969113;28;20193;-65
2022/08/28 04:21:08;;;;;;;7.73;5.43;;;20.20;95.60;;;;;;4970511;28;20442;-66
2022/08/28 04:23:35;;;;;;;7.37;5.77;;;20.20;95.20;;;;;;4969109;28;20486;-66
2022/08/28 04:26:04;;;;;;;6.93;5.50;;;20.20;95.30;;;;;;4970499;28;20466;-65
2022/08/28 04:28:31;;;;;;;9.40;6.13;;;20.20;95.90;;;;;;4967776;28;20443;-66
2022/08/28 04:30:57;;;;;;;9.27;5.20;;;20.20;95.90;;;;;;4969916;28;20466;-66
2022/08/28 04:33:24;;;;;;;6.10;5.50;;;20.30;95.80;;;;;;4969304;28;20466;-69
2022/08/28 04:35:51;;;;;;;8.13;5.83;;;20.30;95.30;;;;;;4952339;28;20944;-66
2022/08/28 04:38:17;;;;;;;5.90;5.40;;;20.30;95.10;;;;;;4970758;28;20999;-66
2022/08/28 04:40:42;;;;;;;7.03;6.27;;;20.20;95.40;;;;;;4953618;28;20431;-66
2022/08/28 04:43:09;;;;;;;10.73;5.73;;;20.20;95.70;;;;;;4970547;28;20415;-66
2022/08/28 04:45:42;;;;;;;6.50;5.17;;;20.20;95.70;;;;;;5006119;28;20231;-66
2022/08/28 04:48:11;;;;;;;6.20;5.70;;;20.20;95.60;;;;;;4993207;28;20449;-66
2022/08/28 04:50:47;;;;;;;9.33;7.00;;;20.20;95.80;;;;;;5010850;28;20421;-66
2022/08/28 04:53:15;;;;;;;7.97;6.50;;;20.20;95.70;;;;;;5010891;28;20433;-66
2022/08/28 04:55:44;;;;;;;11.03;6.17;;;20.20;95.30;;;;;;5010901;28;20489;-65
2022/08/28 04:58:11;;;;;;;9.13;5.73;;;20.20;95.60;;;;;;5012457;28;20783;-65
2022/08/28 05:00:42;;;;;;;8.47;6.90;;;20.30;95.60;;;;;;5014405;28;20418;-66
2022/08/28 05:03:10;;;;;;;9.33;5.70;;;20.20;95.70;;;;;;5010474;28;20568;-66
2022/08/28 05:05:47;;;;;;;5.83;5.23;;;20.20;95.40;;;;;;5012478;28;20480;-66
2022/08/28 05:08:13;;;;;;;6.13;5.53;;;20.20;95.40;;;;;;5014623;28;20927;-66
2022/08/28 05:10:40;;;;;;;6.60;4.83;;;20.20;96.00;;;;;;4996452;28;20465;-65
2022/08/28 05:13:10;;;;;;;6.40;4.90;;;20.20;95.30;;;;;;5014174;28;20415;-66
2022/08/28 05:15:40;;;;;;;5.57;5.00;;;20.20;95.70;;;;;;4982350;28;20429;-65
2022/08/28 05:18:06;;;;;;;7.20;4.77;;;20.30;95.70;;;;;;5014643;28;20782;-65
2022/08/28 05:20:37;;;;;;;7.10;6.00;;;20.20;96.00;;;;;;5011854;28;20991;-66
2022/08/28 05:23:04;;;;;;;9.20;5.13;;;20.20;95.80;;;;;;5014747;28;20418;-66
2022/08/28 05:25:38;;;;;;;5.83;5.00;;;20.20;95.60;;;;;;5014006;28;20462;-66
2022/08/28 05:28:04;;;;;;;6.73;4.37;;;20.20;95.70;;;;;;5014625;28;20809;-66
2022/08/28 05:30:31;;;;;;;9.40;5.17;;;20.20;95.70;;;;;;5013734;28;20969;-66
2022/08/28 05:32:58;;;;;;;11.40;5.50;;;20.20;95.80;;;;;;5014785;28;20497;-65
2022/08/28 05:35:25;;;;;;;4.80;3.90;;;20.30;95.90;;;;;;4998052;28;20431;-69
2022/08/28 05:37:51;;;;;;;5.80;4.00;;;20.30;95.50;;;;;;4995025;28;20480;-66
2022/08/28 05:40:21;;;;;;;7.77;4.40;;;20.30;95.70;;;;;;5012031;28;20426;-66
2022/08/28 05:42:48;;;;;;;5.60;4.47;;;20.30;95.70;;;;;;5013068;28;20517;-66
2022/08/28 05:45:13;;;;;;;8.00;4.57;;;20.30;95.90;;;;;;5013443;28;20476;-66
2022/08/28 05:47:39;;;;;;;6.20;4.30;;;20.30;95.70;;;;;;5013623;28;20965;-66
2022/08/28 05:50:07;;;;;;;5.60;5.20;;;20.40;95.70;;;;;;4996005;28;20270;-66
2022/08/28 05:52:36;;;;;;;6.40;4.73;;;20.30;95.70;;;;;;5013622;28;20178;-66
2022/08/28 05:55:01;;;;;;;8.17;4.67;;;20.40;95.60;;;;;;4995671;28;20780;-66
2022/08/28 05:57:28;;;;;;;5.90;4.80;;;20.40;95.40;;;;;;5013728;28;20414;-69
2022/08/28 05:59:54;;;;;;;6.63;4.80;;;20.40;95.60;;;;;;5012375;28;20241;-66
2022/08/28 06:02:20;;;;;;;8.60;4.70;;;20.40;95.60;;;;;;5011803;28;20466;-66
2022/08/28 06:04:47;;;;;;;5.50;4.73;;;20.40;95.40;;;;;;4996179;28;20175;-65
2022/08/28 06:07:14;;;;;;;9.63;5.70;;;20.40;95.60;;;;;;5014380;28;20187;-66
2022/08/28 06:09:40;;;;;;;5.53;4.73;;;20.50;95.60;;;;;;5008063;28;20461;-66
2022/08/28 06:12:07;;;;;;;7.93;5.17;;;20.50;95.20;;;;;;5012510;28;20504;-65
2022/08/28 06:14:33;;;;;;;8.67;4.77;;;20.50;95.60;;;;;;5013030;28;20460;-66
2022/08/28 06:17:00;;;;;;;6.90;4.80;;;20.50;95.10;;;;;;5010312;28;20434;-66
2022/08/28 06:19:28;;;;;;;5.43;4.93;;;20.50;95.00;;;;;;5010831;28;20418;-68
2022/08/28 06:21:57;;;;;;;7.10;4.80;;;20.50;95.10;;;;;;5012119;28;20929;-68
2022/08/28 06:24:23;;;;;;;8.03;4.80;;;20.50;95.20;;;;;;5004039;28;20941;-68
2022/08/28 06:26:50;;;;;;;15.07;5.10;;;20.50;96.20;;;;;;5005109;28;20457;-68
2022/08/28 06:29:18;;;;;;;5.50;4.50;;;20.70;96.00;;;;;;4989323;28;20418;-68
2022/08/28 06:31:44;;;;;;;5.80;5.00;;;21.00;95.20;;;;;;5005588;28;20425;-66
2022/08/28 06:34:09;;;;;;;5.20;4.70;;;21.30;96.00;;;;;;5002600;28;20771;-67
2022/08/28 06:36:39;;;;;;;7.30;6.20;;;21.60;94.00;;;;;;5005118;28;20183;-68
2022/08/28 06:39:05;;;;;;;8.60;5.37;;;21.80;93.30;;;;;;5012478;28;20250;-67
2022/08/28 06:41:32;;;;;;;7.33;6.63;;;22.10;94.60;;;;;;5005506;28;20492;-68
2022/08/28 06:43:58;;;;;;;9.03;7.03;;;22.20;93.50;;;;;;5013739;28;20464;-68
2022/08/28 06:46:25;;;;;;;9.20;7.30;;;22.40;92.80;;;;;;5013332;28;20457;-68
2022/08/28 06:48:51;;;;;;;10.57;9.40;;;22.50;92.70;;;;;;5003197;28;20430;-70
2022/08/28 06:51:17;;;;;;;6.10;5.30;;;22.70;92.60;;;;;;5006480;28;20521;-68
2022/08/28 06:53:45;;;;;;;7.50;6.33;;;22.80;91.30;;;;;;5007516;28;20426;-69
2022/08/28 06:56:18;;;;;;;12.60;6.80;;;22.80;91.60;;;;;;5005519;28;20513;-68
2022/08/28 06:58:45;;;;;;;6.37;5.70;;;22.90;91.30;;;;;;5006021;28;20491;-68
2022/08/28 07:01:21;;;;;;;6.03;5.53;;;23.00;91.20;;;;;;5006160;28;20425;-68
2022/08/28 07:03:48;;;;;;;9.50;5.37;;;23.10;90.90;;;;;;5007422;28;20477;-72
2022/08/28 07:06:15;;;;;;;26.23;23.47;;;23.10;90.70;;;;;;5009452;28;20908;-67
2022/08/28 07:08:42;;;;;;;152.47;115.97;;;23.20;90.70;;;;;;5007323;28;20434;-72
2022/08/28 07:11:42;;;;;;;23.07;20.37;;;23.30;90.60;;;;;;5010915;28;20426;-68
2022/08/28 07:14:08;;;;;;;11.17;8.77;;;23.30;90.60;;;;;;5004452;28;20945;-68
2022/08/28 07:16:40;;;;;;;8.20;7.40;;;23.30;90.40;;;;;;5004796;28;20517;-70
2022/08/28 07:19:08;;;;;;;11.13;8.30;;;23.30;90.20;;;;;;5004333;28;20407;-68
2022/08/28 07:21:36;;;;;;;9.87;8.80;;;23.40;90.50;;;;;;5006106;28;20936;-72
2022/08/28 07:24:03;;;;;;;11.23;7.47;;;23.40;90.00;;;;;;5004130;28;20825;-68
2022/08/28 07:26:29;;;;;;;8.10;6.90;;;23.40;88.60;;;;;;5003977;28;20950;-68
2022/08/28 07:28:55;;;;;;;7.47;6.33;;;23.40;88.20;;;;;;5002376;28;20426;-68
2022/08/28 07:31:25;;;;;;;8.00;7.20;;;23.50;88.50;;;;;;5001249;28;20476;-68
2022/08/28 07:33:52;;;;;;;7.77;6.10;;;23.40;88.20;;;;;;4988588;28;21322;-68
2022/08/28 07:36:21;;;;;;;6.10;4.07;;;23.40;89.20;;;;;;5006048;28;20445;-68
2022/08/28 07:38:47;;;;;;;8.10;6.47;;;23.40;87.60;;;;;;5005109;28;20433;-68
2022/08/28 07:41:27;;;;;;;7.90;5.10;;;23.50;89.10;;;;;;5002818;28;20429;-68
2022/08/28 07:46:39;;;;;;;150.53;123.70;;;23.40;89.50;;;;;;5003723;28;20458;-69
2022/08/28 07:49:06;;;;;;;35.43;31.60;;;23.40;88.70;;;;;;5003058;28;20434;-68
2022/08/28 07:51:32;;;;;;;13.00;10.10;;;23.40;88.20;;;;;;5001414;28;20419;-74
2022/08/28 07:53:58;;;;;;;7.80;6.00;;;23.40;88.40;;;;;;5004240;28;20514;-68
2022/08/28 07:56:28;;;;;;;16.00;12.47;;;23.50;88.00;;;;;;5001581;28;20502;-68
2022/08/28 07:58:56;;;;;;;13.37;10.80;;;23.50;88.20;;;;;;5000369;28;20159;-68
2022/08/28 08:01:23;;;;;;;6.73;6.07;;;23.50;87.60;;;;;;5008549;28;20425;-69
2022/08/28 08:03:49;;;;;;;9.00;8.17;;;23.60;87.50;;;;;;4984575;28;20475;-69
2022/08/28 08:06:16;;;;;;;10.13;7.80;;;23.60;86.60;;;;;;4982049;28;20935;-69
2022/08/28 08:08:42;;;;;;;7.47;5.43;;;23.50;84.20;;;;;;4985599;28;20649;-68
2022/08/28 08:11:16;;;;;;;124.67;102.27;;;23.40;85.50;;;;;;4988973;28;20463;-68
2022/08/28 08:13:43;;;;;;;36.63;28.90;;;23.40;85.80;;;;;;4983153;28;20547;-68
2022/08/28 08:16:12;;;;;;;16.10;14.10;;;23.30;84.90;;;;;;4985202;28;20434;-68
2022/08/28 08:18:40;;;;;;;8.17;6.37;;;23.30;86.20;;;;;;4980608;28;20418;-69
2022/08/28 08:21:08;;;;;;;6.37;5.70;;;23.30;86.50;;;;;;4981214;28;20424;-68
2022/08/28 08:23:35;;;;;;;6.97;4.80;;;23.40;86.10;;;;;;4983190;28;20423;-71
2022/08/28 08:26:04;;;;;;;8.03;6.33;;;23.40;84.00;;;;;;4986945;28;20469;-68
2022/08/28 08:28:32;;;;;;;9.63;7.17;;;23.40;85.80;;;;;;4983616;28;20441;-68
2022/08/28 08:31:19;;;;;;;17.33;8.27;;;23.30;85.90;;;;;;4984067;28;20843;-67
2022/08/28 08:33:47;;;;;;;4.20;3.80;;;23.40;88.60;;;;;;4984754;28;20427;-68
2022/08/28 08:36:15;;;;;;;6.47;5.73;;;23.40;86.60;;;;;;4987471;28;20850;-68
2022/08/28 08:38:41;;;;;;;6.43;5.60;;;23.40;85.30;;;;;;4989836;28;20438;-68
2022/08/28 08:41:18;;;;;;;5.90;4.30;;;23.40;85.70;;;;;;4988378;28;20430;-68
2022/08/28 08:44:01;;;;;;;4.80;4.40;;;23.30;84.00;;;;;;4986011;28;20826;-68
2022/08/28 08:46:53;;;;;;;5.80;4.23;;;23.30;85.20;;;;;;4984689;28;20477;-68
2022/08/28 08:49:24;;;;;;;21.00;8.80;;;23.30;85.50;;;;;;4985963;28;20404;-67
2022/08/28 08:52:25;;;;;;;54.03;40.23;;;23.40;87.40;;;;;;4987985;28;20396;-68
2022/08/28 08:55:18;;;;;;;7.23;6.40;;;23.40;86.60;;;;;;4986817;28;20430;-68
2022/08/28 08:57:46;;;;;;;5.40;4.90;;;23.30;85.60;;;;;;4985502;28;20515;-68
2022/08/28 09:00:13;;;;;;;7.30;5.03;;;23.40;86.20;;;;;;4984861;28;20419;-69
2022/08/28 09:02:54;;;;;;;8.43;7.10;;;23.40;86.60;;;;;;4995835;28;20462;-68
2022/08/28 09:05:39;;;;;;;4.87;4.43;;;23.40;85.70;;;;;;5009130;28;20500;-70
2022/08/28 09:08:12;;;;;;;7.57;6.20;;;23.50;84.90;;;;;;5006726;28;20984;-68
2022/08/28 09:10:46;;;;;;;7.77;5.80;;;23.50;85.10;;;;;;5008382;28;20811;-72
2022/08/28 09:13:30;;;;;;;7.50;6.70;;;23.70;85.40;;;;;;5010433;28;20430;-69
2022/08/28 09:15:56;;;;;;;8.70;5.73;;;23.80;87.20;;;;;;5008059;28;20425;-68
2022/08/28 09:18:30;;;;;;;8.43;5.80;;;24.00;86.30;;;;;;5008849;28;20432;-67
2022/08/28 09:20:58;;;;;;;7.10;5.10;;;24.10;85.20;;;;;;4993275;28;20261;-68
2022/08/28 09:23:27;;;;;;;6.30;5.70;;;24.10;82.60;;;;;;4992879;28;20422;-68
2022/08/28 09:26:04;;;;;;;4.77;4.10;;;24.20;85.90;;;;;;5007082;28;20584;-68
2022/08/28 09:28:35;;;;;;;230.33;174.50;;;24.20;81.50;;;;;;5013154;28;20426;-68
2022/08/28 09:31:04;;;;;;;14.10;10.60;;;24.20;83.00;;;;;;5005434;28;20430;-68
2022/08/28 09:33:43;;;;;;;7.70;6.83;;;24.20;82.80;;;;;;5011377;28;20496;-67
2022/08/28 09:36:27;;;;;;;6.93;4.07;;;24.30;81.90;;;;;;5014271;28;20967;-67
2022/08/28 09:39:19;;;;;;;8.60;7.73;;;24.30;79.70;;;;;;5013314;28;20425;-68
2022/08/28 09:44:56;;;;;;;7.33;5.97;;;24.70;80.50;;;;;;5013206;28;20418;-72
2022/08/28 09:47:48;;;;;;;5.63;5.13;;;24.80;80.60;;;;;;5011096;28;20437;-68
2022/08/28 09:50:42;;;;;;;4.93;4.50;;;25.00;79.90;;;;;;5014999;28;20748;-67
2022/08/28 09:53:07;;;;;;;5.03;4.57;;;25.10;76.20;;;;;;5005911;28;20442;-68
2022/08/28 09:55:56;;;;;;;6.13;4.70;;;25.10;75.50;;;;;;5012240;28;20846;-67
2022/08/28 09:58:30;;;;;;;7.33;5.23;;;25.20;74.50;;;;;;4991713;28;20539;-68
2022/08/28 10:01:18;;;;;;;4.47;3.83;;;25.20;73.30;;;;;;5012136;28;20783;-67
2022/08/28 10:03:49;;;;;;;6.73;4.17;;;25.20;72.90;;;;;;5012967;28;20564;-67
2022/08/28 10:06:28;;;;;;;5.30;4.77;;;25.30;74.70;;;;;;5004476;28;20493;-66
2022/08/28 10:09:00;;;;;;;8.13;4.47;;;25.30;79.40;;;;;;4994248;28;20449;-66
2022/08/28 10:11:41;;;;;;;7.97;4.53;;;25.30;74.60;;;;;;4998530;28;20808;-67
2022/08/28 10:14:38;;;;;;;186.90;155.43;;;25.50;74.10;;;;;;5007813;28;20479;-68
2022/08/28 10:17:40;;;;;;;67.93;60.73;;;25.70;73.90;;;;;;5009006;28;20444;-71
2022/08/28 10:21:14;;;;;;;6.40;5.80;;;25.90;68.90;;;;;;5008209;28;20429;-68
2022/08/28 10:23:51;;;;;;;5.80;4.00;;;26.10;71.50;;;;;;4854914;29;20425;-69
2022/08/28 10:26:47;;;;;;;4.33;3.80;;;26.30;70.50;;;;;;4853791;29;20476;-69
2022/08/28 10:29:22;;;;;;;5.67;4.13;;;26.50;69.00;;;;;;4890484;29;20435;-69
2022/08/28 10:32:03;;;;;;;5.70;3.97;;;26.70;69.20;;;;;;4907535;29;20450;-68
2022/08/28 10:34:55;;;;;;;4.40;4.00;;;26.70;67.50;;;;;;4901766;29;20440;-68
2022/08/28 10:37:36;;;;;;;6.93;6.00;;;26.80;65.10;;;;;;4902594;29;20431;-67
2022/08/28 10:40:14;;;;;;;5.00;4.60;;;26.60;74.30;;;;;;4908735;29;20437;-69
2022/08/28 10:42:52;;;;;;;22.20;17.43;;;26.50;67.90;;;;;;4903994;29;20425;-68
2022/08/28 10:45:23;;;;;;;15.73;14.10;;;26.60;70.50;;;;;;4906714;29;20465;-68
2022/08/28 10:47:59;;;;;;;5.93;5.33;;;26.80;70.00;;;;;;4886422;29;20788;-68
2022/08/28 10:50:31;;;;;;;5.57;5.10;;;26.90;70.30;;;;;;4903640;29;20419;-67
2022/08/28 10:53:07;;;;;;;5.17;4.33;;;27.00;65.30;;;;;;4911118;29;20881;-68
2022/08/28 10:55:42;;;;;;;6.57;4.10;;;27.10;65.90;;;;;;4984167;28;20930;-68
2022/08/28 10:58:10;;;;;;;4.70;4.40;;;27.20;66.00;;;;;;5006289;28;20420;-68
2022/08/28 11:00:38;;;;;;;6.13;5.23;;;27.20;64.60;;;;;;5002116;28;20468;-68
2022/08/28 11:03:13;;;;;;;4.50;4.10;;;27.30;64.90;;;;;;5009539;28;20458;-67
2022/08/28 11:05:53;;;;;;;4.73;4.30;;;27.40;62.10;;;;;;5003365;28;20457;-68
2022/08/28 11:08:34;;;;;;;5.53;4.70;;;27.50;63.50;;;;;;5004647;28;20472;-73
2022/08/28 11:11:02;;;;;;;5.50;4.70;;;27.60;64.50;;;;;;5002723;28;20422;-70
2022/08/28 11:13:55;;;;;;;4.67;4.30;;;27.70;61.20;;;;;;5005311;28;20533;-69
2022/08/28 11:16:27;;;;;;;5.37;4.20;;;27.70;62.50;;;;;;5002315;28;20446;-69
2022/08/28 11:19:30;;;;;;;4.27;3.87;;;27.70;60.50;;;;;;4998317;28;20964;-68
2022/08/28 11:22:06;;;;;;;10.63;5.60;;;27.70;60.10;;;;;;5002679;28;20438;-68
2022/08/28 11:24:41;;;;;;;39.55;35.25;;;27.80;63.30;;;;;;5000744;28;20497;-69
2022/08/28 11:27:22;;;;;;;47.30;42.70;;;27.90;62.40;;;;;;4998140;28;20758;-68
2022/08/28 11:30:09;;;;;;;6.23;5.37;;;28.00;61.30;;;;;;4999060;28;20476;-68
2022/08/28 11:32:50;;;;;;;5.27;4.93;;;27.80;59.20;;;;;;4998866;28;20423;-68
2022/08/28 11:35:19;;;;;;;5.47;4.83;;;27.80;60.00;;;;;;5002965;28;20470;-69
2022/08/28 11:37:51;;;;;;;5.53;5.03;;;27.70;61.90;;;;;;4999124;28;20435;-69
2022/08/28 11:40:17;;;;;;;4.73;4.40;;;27.70;60.60;;;;;;5005696;28;20887;-68
2022/08/28 11:42:47;;;;;;;8.13;4.33;;;27.80;62.20;;;;;;5000725;28;20514;-69
2022/08/28 11:45:41;;;;;;;5.37;4.87;;;27.80;58.70;;;;;;5002519;28;20203;-69
2022/08/28 11:48:38;;;;;;;4.47;4.17;;;27.90;60.10;;;;;;4972717;28;20449;-67
2022/08/28 11:51:16;;;;;;;5.80;4.20;;;28.00;61.10;;;;;;5008478;28;20804;-69
2022/08/28 11:54:00;;;;;;;4.50;4.20;;;28.00;60.50;;;;;;5004786;28;20441;-69
2022/08/28 11:56:32;;;;;;;4.63;3.80;;;28.00;59.20;;;;;;5008418;28;20466;-64
2022/08/28 11:59:07;;;;;;;4.83;4.30;;;27.90;58.20;;;;;;5011423;28;20433;-63
2022/08/28 12:01:34;;;;;;;4.23;3.83;;;28.00;57.60;;;;;;5011738;28;20433;-63
2022/08/28 12:04:03;;;;;;;4.77;3.50;;;28.00;57.50;;;;;;5010654;28;20823;-66
2022/08/28 12:06:48;;;;;;;4.70;4.30;;;28.10;56.70;;;;;;5012662;28;20552;-62
2022/08/28 12:09:33;;;;;;;4.40;3.77;;;28.10;56.50;;;;;;5015650;28;20889;-63
2022/08/28 12:12:10;;;;;;;4.60;3.53;;;28.10;56.70;;;;;;5010125;28;20415;-69
2022/08/28 12:14:39;;;;;;;3.80;3.60;;;28.20;57.00;;;;;;4996877;28;20936;-65
2022/08/28 12:17:20;;;;;;;3.93;3.67;;;28.20;56.00;;;;;;5014326;28;20424;-63
2022/08/28 12:20:14;;;;;;;4.23;3.87;;;28.30;56.00;;;;;;5015355;28;20420;-63
2022/08/28 12:22:51;;;;;;;5.60;3.50;;;28.30;56.20;;;;;;5016347;28;20406;-64
2022/08/28 12:25:42;;;;;;;4.03;3.60;;;28.30;57.00;;;;;;4998411;28;20461;-63
2022/08/28 12:28:56;;;;;;;4.57;3.60;;;28.30;56.30;;;;;;5015475;28;20414;-64
2022/08/28 12:34:33;;;;;;;3.80;3.30;;;28.30;56.40;;;;;;5015858;28;20430;-63
2022/08/28 12:37:00;;;;;;;3.73;3.43;;;28.30;55.10;;;;;;5015556;28;20436;-63
2022/08/28 12:39:29;;;;;;;4.03;3.63;;;28.20;55.40;;;;;;5016116;28;20487;-63
2022/08/28 12:41:56;;;;;;;9.53;8.53;;;28.10;55.50;;;;;;5015295;28;20501;-63
2022/08/28 12:44:26;;;;;;;4.70;4.20;;;28.10;55.70;;;;;;5015787;28;20464;-63
2022/08/28 12:46:53;;;;;;;3.97;3.67;;;28.20;55.40;;;;;;5015365;28;20801;-64
2022/08/28 12:49:35;;;;;;;3.63;3.40;;;28.10;54.60;;;;;;5015679;28;20977;-63
2022/08/28 12:52:19;;;;;;;4.00;3.80;;;27.90;56.30;;;;;;5015537;28;20766;-63
2022/08/28 12:54:47;;;;;;;3.97;3.67;;;27.90;55.40;;;;;;5015811;28;20398;-69
2022/08/28 12:57:15;;;;;;;4.03;3.70;;;27.80;55.40;;;;;;5015784;28;20410;-62
2022/08/28 12:59:46;;;;;;;3.40;3.20;;;27.60;55.50;;;;;;5015774;28;20402;-62
2022/08/28 13:02:28;;;;;;;6.53;3.23;;;27.50;56.60;;;;;;4998024;28;20512;-62
2022/08/28 13:05:08;;;;;;;6.03;3.17;;;27.30;56.40;;;;;;5014302;28;20520;-62
2022/08/28 13:07:44;;;;;;;3.80;3.47;;;27.30;56.10;;;;;;5015599;28;20410;-62
2022/08/28 13:10:20;;;;;;;3.90;3.23;;;27.30;57.50;;;;;;5014974;28;20399;-62
2022/08/28 13:12:59;;;;;;;5.33;4.43;;;27.40;56.50;;;;;;5014852;28;20778;-68
2022/08/28 13:15:46;;;;;;;12.40;10.43;;;27.40;56.30;;;;;;4998009;28;20929;-62
2022/08/28 13:18:44;;;;;;;4.23;3.83;;;27.40;55.90;;;;;;5014758;28;20816;-62
2022/08/28 13:21:18;;;;;;;4.30;3.40;;;27.40;55.30;;;;;;5014547;28;20403;-62
2022/08/28 13:23:50;;;;;;;3.47;3.17;;;27.40;56.20;;;;;;5014229;28;20777;-62